createdAt,value
2018-08-31T05:48:44.110Z,99.90
2018-08-31T05:51:15.657Z,99.90
2018-08-31T05:53:46.589Z,99.90
2018-08-31T05:56:17.524Z,99.90
2018-08-31T05:58:49.726Z,99.90
2018-08-31T06:01:20.583Z,99.90
2018-08-31T06:03:51.613Z,99.90
2018-08-31T06:06:22.642Z,99.90
2018-08-31T06:08:54.665Z,99.90
2018-08-31T06:11:25.888Z,99.90
2018-08-31T06:13:56.770Z,99.90
2018-08-31T06:16:27.634Z,99.90
2018-08-31T06:18:58.929Z,99.90
2018-08-31T06:21:30.021Z,99.90
2018-08-31T06:24:01.604Z,99.90
2018-08-31T06:26:33.004Z,99.90
2018-08-31T06:29:04.422Z,99.90
2018-08-31T06:31:35.539Z,99.90
2018-08-31T06:34:07.408Z,99.90
2018-08-31T06:36:38.309Z,99.90
2018-08-31T06:39:09.407Z,99.90
2018-08-31T06:41:41.583Z,99.90
2018-08-31T06:44:12.533Z,99.90
2018-08-31T06:46:43.515Z,99.90
2018-08-31T06:49:14.641Z,99.90
2018-08-31T06:51:46.215Z,99.90
2018-08-31T06:54:17.188Z,99.90
2018-08-31T06:56:48.925Z,99.90
2018-08-31T06:59:21.973Z,99.90
2018-08-31T07:01:53.017Z,99.90
2018-08-31T07:04:24.117Z,99.90
2018-08-31T07:06:55.125Z,99.90
2018-08-31T07:09:26.715Z,99.90
2018-08-31T07:11:57.744Z,99.90
2018-08-31T07:14:28.783Z,99.90
2018-08-31T07:16:59.842Z,99.90
2018-08-31T07:19:30.935Z,99.90
2018-08-31T07:22:02.225Z,99.90
2018-08-31T07:24:33.481Z,99.90
2018-08-31T07:27:04.403Z,99.60
2018-08-31T07:29:35.388Z,96.80
2018-08-31T07:32:06.742Z,95.10
2018-08-31T07:34:37.694Z,93.30
2018-08-31T07:37:09.161Z,90.70
2018-08-31T07:39:40.078Z,87.50
2018-08-31T07:42:11.046Z,83.50
2018-08-31T07:44:42.064Z,75.20
2018-08-31T07:47:12.967Z,65.80
2018-08-31T07:49:43.873Z,58.00
2018-08-31T07:52:14.650Z,55.30
2018-08-31T07:54:45.959Z,53.00
2018-08-31T07:57:17.603Z,50.60
2018-08-31T07:59:49.648Z,51.80
2018-08-31T08:02:20.979Z,55.60
2018-08-31T08:04:51.971Z,58.80
2018-08-31T08:07:22.997Z,59.10
2018-08-31T08:09:53.879Z,58.90
2018-08-31T08:12:24.820Z,59.70
2018-08-31T08:14:55.693Z,62.70
2018-08-31T08:17:26.552Z,65.00
2018-08-31T08:19:57.457Z,64.00
2018-08-31T08:22:29.269Z,60.70
2018-08-31T08:25:00.315Z,57.40
2018-08-31T08:27:31.197Z,53.00
2018-08-31T08:30:02.137Z,50.50
2018-08-31T08:32:33.065Z,51.30
2018-08-31T08:35:04.147Z,51.80
2018-08-31T08:37:35.007Z,51.30
2018-08-31T08:40:06.555Z,50.50
2018-08-31T08:42:37.557Z,48.70
2018-08-31T08:45:08.793Z,48.60
2018-08-31T08:47:39.669Z,48.70
2018-08-31T08:50:11.493Z,49.00
2018-08-31T08:52:42.722Z,48.90
2018-08-31T08:55:13.675Z,49.30
2018-08-31T08:57:44.589Z,49.40
2018-08-31T09:00:16.290Z,50.10
2018-08-31T09:02:47.259Z,49.40
2018-08-31T09:05:18.107Z,48.90
2018-08-31T09:07:49.046Z,48.50
2018-08-31T09:10:19.994Z,48.00
2018-08-31T09:12:51.525Z,49.40
2018-08-31T09:15:22.287Z,49.00
2018-08-31T09:17:53.647Z,49.40
2018-08-31T09:20:24.620Z,46.60
2018-08-31T09:22:55.425Z,47.00
2018-08-31T09:25:26.240Z,46.00
2018-08-31T09:27:57.752Z,47.30
2018-08-31T09:30:33.703Z,46.70
2018-08-31T09:33:04.803Z,46.80
2018-08-31T09:35:35.602Z,46.10
2018-08-31T09:38:06.560Z,46.60
2018-08-31T09:40:37.469Z,46.10
2018-08-31T09:43:12.289Z,44.30
2018-08-31T09:45:43.168Z,45.00
2018-08-31T09:48:14.717Z,45.10
2018-08-31T09:50:45.595Z,46.00
2018-08-31T09:53:17.352Z,46.50
2018-08-31T09:55:48.303Z,47.70
2018-08-31T09:58:19.230Z,46.70
2018-08-31T10:00:59.631Z,46.80
2018-08-31T10:03:30.436Z,46.30
2018-08-31T10:06:01.319Z,46.30
2018-08-31T10:08:32.232Z,45.60
2018-08-31T10:11:03.077Z,45.30
2018-08-31T10:13:33.944Z,47.20
2018-08-31T10:16:06.826Z,47.20
2018-08-31T10:18:37.924Z,45.00
2018-08-31T10:21:09.796Z,43.80
2018-08-31T10:23:40.729Z,44.90
2018-08-31T10:26:11.695Z,43.40
2018-08-31T10:28:42.965Z,44.50
2018-08-31T10:31:14.301Z,44.80
2018-08-31T10:33:45.373Z,45.50
2018-08-31T10:36:16.295Z,45.10
2018-08-31T10:38:47.756Z,44.30
2018-08-31T10:41:18.604Z,43.70
2018-08-31T10:43:50.632Z,44.80
2018-08-31T10:46:21.678Z,46.00
2018-08-31T10:48:53.015Z,45.50
2018-08-31T10:51:23.815Z,46.10
2018-08-31T10:53:54.969Z,44.90
2018-08-31T10:56:25.970Z,45.40
2018-08-31T10:58:56.947Z,43.20
2018-08-31T11:01:27.871Z,43.10
2018-08-31T11:04:00.665Z,43.00
2018-08-31T11:06:32.833Z,44.60
2018-08-31T11:09:04.728Z,42.60
2018-08-31T11:11:42.511Z,43.40
2018-08-31T11:14:15.728Z,40.80
2018-08-31T11:16:52.220Z,41.70
2018-08-31T11:19:23.318Z,38.20
2018-08-31T11:21:54.844Z,38.60
2018-08-31T11:24:25.843Z,39.00
2018-08-31T11:26:56.921Z,39.10
2018-08-31T11:29:28.091Z,39.00
2018-08-31T11:32:01.162Z,39.30
2018-08-31T11:34:32.350Z,39.10
2018-08-31T11:37:03.588Z,38.40
2018-08-31T11:39:35.175Z,40.20
2018-08-31T11:42:09.246Z,39.00
2018-08-31T11:44:46.012Z,37.30
2018-08-31T11:47:17.088Z,38.00
2018-08-31T11:49:48.907Z,38.10
2018-08-31T11:52:21.334Z,38.20
2018-08-31T11:54:52.464Z,38.40
2018-08-31T11:57:23.559Z,38.30
2018-08-31T11:59:59.064Z,37.80
2018-08-31T12:02:31.904Z,38.70
2018-08-31T12:05:08.123Z,39.70
2018-08-31T12:07:39.092Z,39.90
2018-08-31T12:10:10.631Z,40.50
2018-08-31T12:12:41.566Z,40.40
2018-08-31T12:15:13.715Z,38.90
2018-08-31T12:17:44.693Z,39.00
2018-08-31T12:20:15.741Z,41.40
2018-08-31T15:51:09.315Z,39.80
2018-08-31T15:53:48.048Z,49.50
2018-08-31T15:56:23.541Z,50.00
2018-08-31T15:59:17.738Z,50.70
2018-08-31T16:01:53.877Z,51.30
2018-08-31T16:04:48.257Z,51.30
2018-08-31T16:07:30.641Z,51.20
2018-08-31T16:10:05.095Z,51.60
2018-08-31T16:12:37.084Z,51.80
2018-08-31T16:15:10.891Z,52.60
2018-08-31T16:17:53.639Z,53.70
2018-08-31T16:20:25.097Z,53.60
2018-08-31T16:22:56.847Z,54.00
2018-08-31T16:25:35.386Z,54.40
2018-08-31T16:28:08.241Z,54.50
2018-08-31T16:30:40.856Z,54.70
2018-08-31T16:33:12.951Z,54.80
2018-08-31T16:35:59.324Z,55.10
2018-08-31T16:38:32.365Z,55.30
2018-08-31T16:41:08.021Z,55.80
2018-08-31T16:43:40.789Z,56.20
2018-08-31T16:46:11.753Z,56.70
2018-08-31T16:48:42.673Z,57.20
2018-08-31T16:51:39.023Z,57.60
2018-08-31T17:08:16.341Z,58.80
2018-08-31T17:10:47.141Z,62.70
2018-08-31T17:13:31.426Z,63.10
2018-08-31T17:16:03.747Z,63.90
2018-08-31T17:18:34.601Z,64.60
2018-08-31T17:21:05.454Z,64.50
2018-08-31T17:23:37.357Z,64.50
2018-08-31T17:26:12.410Z,65.20
2018-08-31T17:28:48.294Z,65.90
2018-08-31T17:31:25.757Z,65.50
2018-08-31T17:36:04.013Z,66.20
2018-08-31T17:38:45.327Z,67.10
2018-08-31T17:41:16.526Z,67.70
2018-08-31T17:43:48.538Z,68.70
2018-08-31T17:46:19.606Z,69.60
